Time;durP1;ratioP1;P1;durP2;ratioP2;P2;SDS_P1;SDS_P2;PMS_P1;PMS_P2;Temp;Humidity;BMP_temperature;BMP_pressure;BME280_temperature;BME280_humidity;BME280_pressure;Samples;Min_cycle;Max_cycle;Signal;HPM_P1;HPM_P2
2023/11/26 00:00:22;;;;;;;8.32;2.53;;;;;;;3.27;100.00;101653.88;6085525;19;20011;-73
2023/11/26 00:02:30;;;;;;;6.75;3.65;;;;;;;3.26;100.00;101652.13;6081872;19;20013;-72
2023/11/26 00:04:35;;;;;;;9.07;3.17;;;;;;;3.27;100.00;101657.34;6087275;19;20079;-73
2023/11/26 00:06:44;;;;;;;9.80;3.78;;;;;;;3.25;100.00;101660.81;6082246;19;20482;-75
2023/11/26 00:08:49;;;;;;;9.57;3.50;;;;;;;3.32;100.00;101666.88;6083590;19;20052;-74
2023/11/26 00:10:53;;;;;;;7.05;3.47;;;;;;;3.33;100.00;101664.28;6084443;19;20359;-73
2023/11/26 00:12:59;;;;;;;9.30;3.80;;;;;;;3.38;100.00;101670.38;6084240;19;20464;-73
2023/11/26 00:15:05;;;;;;;8.27;3.47;;;;;;;3.51;100.00;101684.25;6078571;19;20456;-73
2023/11/26 00:17:10;;;;;;;5.00;3.15;;;;;;;3.74;100.00;101699.91;6082443;19;20006;-73
2023/11/26 00:19:19;;;;;;;5.30;2.30;;;;;;;4.06;100.00;101699.06;6083568;19;20471;-73
2023/11/26 00:21:24;;;;;;;1.83;1.38;;;;;;;4.20;100.00;101688.66;6085196;19;20495;-73
2023/11/26 00:23:29;;;;;;;9.80;2.35;;;;;;;4.24;100.00;101688.66;6082911;19;20015;-73
2023/11/26 00:25:35;;;;;;;4.82;2.08;;;;;;;4.15;100.00;101673.88;6083706;19;20023;-73
2023/11/26 00:27:40;;;;;;;5.55;1.55;;;;;;;4.09;100.00;101662.63;6082967;19;20474;-73
2023/11/26 00:29:44;;;;;;;6.85;2.25;;;;;;;4.04;100.00;101664.38;6082577;19;20034;-73
2023/11/26 00:31:50;;;;;;;3.22;1.83;;;;;;;3.99;100.00;101666.97;6085262;19;20011;-74
2023/11/26 00:33:55;;;;;;;4.85;1.85;;;;;;;3.90;100.00;101667.84;6078219;19;20018;-74
2023/11/26 00:36:03;;;;;;;3.65;1.90;;;;;;;3.86;100.00;101658.28;6082728;19;20007;-74
2023/11/26 00:38:12;;;;;;;6.57;1.98;;;;;;;3.79;100.00;101664.38;6083123;19;20020;-74
2023/11/26 00:40:23;;;;;;;4.03;1.55;;;;;;;3.73;100.00;101649.63;6084714;19;19998;-72
2023/11/26 00:42:28;;;;;;;7.68;2.22;;;;;;;3.66;100.00;101652.22;6084445;19;21271;-73
2023/11/26 00:44:34;;;;;;;2.83;1.20;;;;;;;3.58;100.00;101653.94;6085974;19;20006;-72
2023/11/26 00:46:39;;;;;;;5.28;1.80;;;;;;;3.57;100.00;101647.88;6079935;19;20020;-72
2023/11/26 00:48:44;;;;;;;2.65;1.35;;;;;;;3.50;100.00;101649.63;6085373;19;20497;-74
2023/11/26 00:50:48;;;;;;;2.30;1.58;;;;;;;3.51;100.00;101653.94;6078720;19;20064;-73
2023/11/26 00:52:56;;;;;;;7.00;2.13;;;;;;;3.45;100.00;101647.84;6077618;19;20003;-73
2023/11/26 00:54:58;;;;;;;2.45;1.55;;;;;;;3.40;100.00;101660.84;6083186;19;20022;-75
2023/11/26 00:57:05;;;;;;;1.90;1.65;;;;;;;3.36;100.00;101651.31;6083638;19;20010;-75
2023/11/26 00:59:10;;;;;;;2.47;2.10;;;;;;;3.31;100.00;101655.63;6080508;19;20042;-75
2023/11/26 01:01:15;;;;;;;7.68;2.53;;;;;;;3.30;100.00;101659.09;6082121;19;20002;-73
2023/11/26 01:03:20;;;;;;;6.07;2.47;;;;;;;3.26;100.00;101662.53;6082234;19;20462;-73
2023/11/26 01:05:26;;;;;;;8.13;2.50;;;;;;;3.25;100.00;101669.47;6085168;19;21062;-75
2023/11/26 01:07:31;;;;;;;4.63;2.60;;;;;;;3.22;100.00;101663.41;6084154;19;21317;-74
2023/11/26 01:09:39;;;;;;;6.38;2.80;;;;;;;3.21;100.00;101664.25;6076891;19;20877;-74
2023/11/26 01:11:43;;;;;;;5.20;2.83;;;;;;;3.22;100.00;101677.25;6082241;19;20002;-75
2023/11/26 01:13:48;;;;;;;7.65;3.03;;;;;;;3.21;100.00;101674.63;6084181;19;20034;-74
2023/11/26 01:15:53;;;;;;;5.40;2.88;;;;;;;3.24;100.00;101677.25;6080352;19;20018;-74
2023/11/26 01:18:00;;;;;;;4.18;2.50;;;;;;;3.30;100.00;101674.69;6083319;19;20074;-74
2023/11/26 01:20:10;;;;;;;9.68;4.07;;;;;;;3.41;100.00;101682.50;6080205;19;20051;-75
2023/11/26 01:22:15;;;;;;;10.95;4.88;;;;;;;3.50;100.00;101687.69;6084417;19;20006;-74
2023/11/26 01:24:20;;;;;;;7.30;3.88;;;;;;;3.48;100.00;101690.31;6084340;19;20314;-74
2023/11/26 01:26:28;;;;;;;8.63;2.83;;;;;;;3.59;100.00;101692.06;6083741;19;20025;-74
2023/11/26 01:28:33;;;;;;;5.03;1.70;;;;;;;3.65;100.00;101684.28;6083847;19;20006;-74
2023/11/26 01:30:38;;;;;;;2.47;1.60;;;;;;;4.04;100.00;101669.56;6084957;19;20011;-74
2023/11/26 01:32:44;;;;;;;6.97;1.55;;;;;;;4.18;100.00;101670.41;6076013;19;20010;-72
2023/11/26 01:34:49;;;;;;;2.30;1.33;;;;;;;4.17;100.00;101669.56;6080117;19;20658;-73
2023/11/26 01:36:54;;;;;;;5.03;1.75;;;;;;;4.21;100.00;101666.94;6081607;19;20032;-73
2023/11/26 01:38:59;;;;;;;2.08;1.17;;;;;;;4.23;100.00;101665.22;6080812;19;20074;-73
2023/11/26 01:41:06;;;;;;;4.75;1.42;;;;;;;4.23;100.00;101671.28;6080714;19;20124;-73
2023/11/26 01:43:13;;;;;;;2.90;1.15;;;;;;;4.21;100.00;101670.41;6081554;19;20433;-72
2023/11/26 01:45:19;;;;;;;1.58;1.10;;;;;;;4.22;100.00;101669.56;6082031;19;20031;-73
2023/11/26 01:47:24;;;;;;;6.97;1.52;;;;;;;4.26;100.00;101671.28;6080437;19;20094;-75
2023/11/26 01:49:29;;;;;;;3.20;1.42;;;;;;;4.28;100.00;101673.88;6083315;19;20011;-75
2023/11/26 01:51:36;;;;;;;5.05;1.33;;;;;;;4.42;100.00;101674.72;6082368;19;20025;-73
2023/11/26 01:53:44;;;;;;;1.17;0.73;;;;;;;4.42;100.00;101666.91;6078487;19;20011;-73
2023/11/26 01:55:49;;;;;;;2.47;1.02;;;;;;;4.45;100.00;101668.66;6080989;19;20070;-72
2023/11/26 01:57:54;;;;;;;3.47;1.10;;;;;;;4.44;100.00;101669.53;6083420;19;20010;-73
2023/11/26 02:00:03;;;;;;;7.30;1.58;;;;;;;4.43;100.00;101667.81;6087296;19;20039;-72
2023/11/26 02:02:08;;;;;;;7.40;1.67;;;;;;;4.38;100.00;101668.66;6089234;19;20098;-72
2023/11/26 02:04:14;;;;;;;2.22;1.50;;;;;;;4.36;100.00;101664.34;6091008;19;20007;-72
2023/11/26 02:06:19;;;;;;;5.05;1.55;;;;;;;4.33;100.00;101662.59;6090453;19;20006;-74
2023/11/26 02:08:22;;;;;;;1.95;1.30;;;;;;;4.30;100.00;101666.97;6091679;19;20010;-72
2023/11/26 02:10:27;;;;;;;5.50;1.70;;;;;;;4.25;100.00;101664.34;6089661;19;20014;-72
2023/11/26 02:12:29;;;;;;;1.23;1.13;;;;;;;4.28;100.00;101666.94;6083149;19;20007;-72
2023/11/26 02:14:35;;;;;;;3.17;1.80;;;;;;;4.27;100.00;101675.63;6089818;19;20010;-73
2023/11/26 02:16:47;;;;;;;3.83;2.40;;;;;;;4.22;100.00;101677.38;6088347;19;20006;-74
2023/11/26 02:18:52;;;;;;;5.10;2.10;;;;;;;4.13;100.00;101675.66;6082497;19;20014;-73
2023/11/26 02:20:57;;;;;;;1.42;0.95;;;;;;;4.04;100.00;101669.56;6087513;19;20315;-73
2023/11/26 02:23:03;;;;;;;4.95;1.33;;;;;;;3.97;100.00;101669.56;6089248;19;20341;-73
2023/11/26 02:25:12;;;;;;;5.15;3.08;;;;;;;4.00;100.00;101668.69;6088285;19;20122;-74
2023/11/26 02:27:17;;;;;;;3.60;1.27;;;;;;;3.95;100.00;101670.44;6086939;19;20019;-73
2023/11/26 02:29:22;;;;;;;2.75;1.60;;;;;;;3.90;100.00;101667.84;6086697;19;20014;-73
2023/11/26 02:31:27;;;;;;;9.77;2.13;;;;;;;3.87;100.00;101662.66;6086411;19;20014;-74
2023/11/26 02:33:36;;;;;;;4.35;2.33;;;;;;;3.85;100.00;101666.97;6087120;19;20651;-73
2023/11/26 02:35:59;;;;;;;5.43;2.15;;;;;;;3.82;100.00;101664.38;6087258;19;20010;-73
2023/11/26 02:38:02;;;;;;;5.03;2.30;;;;;;;3.80;100.00;101660.03;6080718;19;20010;-73
2023/11/26 02:40:15;;;;;;;3.60;1.45;;;;;;;3.79;100.00;101653.97;6086446;19;20421;-73
2023/11/26 02:42:20;;;;;;;4.63;1.83;;;;;;;3.77;100.00;101658.31;6086881;19;20383;-73
2023/11/26 02:44:25;;;;;;;12.98;2.42;;;;;;;3.80;100.00;101647.91;6089977;19;20062;-73
2023/11/26 02:46:30;;;;;;;9.02;2.95;;;;;;;3.78;100.00;101649.63;6086853;19;20318;-73
2023/11/26 02:48:37;;;;;;;1.48;1.38;;;;;;;3.76;100.00;101653.09;6088969;19;20389;-73
2023/11/26 02:50:42;;;;;;;2.55;1.33;;;;;;;3.71;100.00;101656.56;6085558;19;20057;-73
2023/11/26 02:52:45;;;;;;;3.58;1.73;;;;;;;3.69;100.00;101654.84;6083120;19;20085;-73
2023/11/26 02:54:49;;;;;;;2.55;1.40;;;;;;;3.67;100.00;101659.16;6086472;19;20355;-74
2023/11/26 02:56:58;;;;;;;6.32;1.45;;;;;;;3.65;100.00;101660.88;6088310;19;20007;-73
2023/11/26 02:59:02;;;;;;;3.60;1.75;;;;;;;3.66;100.00;101657.41;6084725;19;20026;-73
2023/11/26 03:01:06;;;;;;;5.32;2.25;;;;;;;3.68;100.00;101659.13;6084018;19;20010;-74
2023/11/26 03:03:11;;;;;;;5.07;1.95;;;;;;;3.69;100.00;101665.22;6083279;19;20037;-73
2023/11/26 03:05:17;;;;;;;7.63;2.97;;;;;;;3.71;100.00;101659.16;6086155;19;20010;-74
2023/11/26 03:07:27;;;;;;;12.63;2.50;;;;;;;3.73;100.00;101660.00;6086838;19;20023;-72
2023/11/26 03:09:41;;;;;;;3.85;2.35;;;;;;;3.70;100.00;101657.41;6078947;19;20445;-73
2023/11/26 03:14:03;;;;;;;4.95;2.20;;;;;;;3.66;100.00;101663.50;6086088;19;20663;-73
2023/11/26 03:16:12;;;;;;;6.80;2.10;;;;;;;3.68;100.00;101660.88;6084629;19;20074;-72
2023/11/26 03:18:17;;;;;;;3.17;1.67;;;;;;;3.64;100.00;101660.03;6086621;19;20010;-72
2023/11/26 03:20:20;;;;;;;4.88;1.90;;;;;;;3.68;100.00;101656.53;6083556;19;20014;-72
2023/11/26 03:22:26;;;;;;;4.75;1.20;;;;;;;3.72;100.00;101665.22;6087538;19;20094;-73
2023/11/26 03:24:31;;;;;;;8.93;1.90;;;;;;;3.73;100.00;101659.16;6085747;19;20011;-73
2023/11/26 03:26:36;;;;;;;5.57;1.40;;;;;;;3.74;100.00;101666.09;6088428;19;20011;-73
2023/11/26 03:28:45;;;;;;;5.88;1.17;;;;;;;3.78;100.00;101659.16;6087180;19;20006;-74
2023/11/26 03:30:52;;;;;;;5.78;2.58;;;;;;;3.78;100.00;101657.44;6086269;19;20416;-73
2023/11/26 03:32:58;;;;;;;14.35;2.17;;;;;;;3.82;100.00;101663.47;6083165;19;20308;-73
2023/11/26 03:35:06;;;;;;;3.75;1.42;;;;;;;3.80;100.00;101663.50;6081859;19;20465;-72
2023/11/26 03:37:08;;;;;;;3.08;1.88;;;;;;;3.81;100.00;101662.63;6084031;19;20025;-71
2023/11/26 03:39:13;;;;;;;3.53;2.00;;;;;;;3.78;100.00;101662.63;6085248;19;20010;-73
2023/11/26 03:41:18;;;;;;;7.60;2.13;;;;;;;3.73;100.00;101646.16;6083182;19;20033;-73
2023/11/26 03:43:22;;;;;;;2.97;1.27;;;;;;;3.71;100.00;101650.47;6084895;19;20384;-73
2023/11/26 03:45:28;;;;;;;1.83;1.70;;;;;;;3.69;100.00;101647.03;6084902;19;20018;-73
2023/11/26 03:47:36;;;;;;;6.13;2.20;;;;;;;3.67;100.00;101646.16;6085167;19;20023;-73
2023/11/26 03:49:41;;;;;;;8.63;1.73;;;;;;;3.65;100.00;101653.09;6081759;19;20018;-72
2023/11/26 03:51:46;;;;;;;11.02;2.25;;;;;;;3.64;100.00;101648.75;6086497;19;20113;-73
2023/11/26 03:53:52;;;;;;;7.05;2.95;;;;;;;3.64;100.00;101659.16;6077446;19;20487;-74
2023/11/26 03:55:54;;;;;;;6.32;2.10;;;;;;;3.61;100.00;101648.75;6082127;19;20025;-73
2023/11/26 03:57:59;;;;;;;;;;;;;;;3.60;100.00;101644.41;6083064;19;20018;-72
2023/11/26 04:00:07;;;;;;;6.90;3.35;;;;;;;3.60;100.00;101649.63;6086150;19;19907;-73
2023/11/26 04:02:10;;;;;;;7.55;2.92;;;;;;;3.57;100.00;101649.63;6084149;19;20025;-73
2023/11/26 04:04:17;;;;;;;9.50;3.67;;;;;;;3.58;100.00;101648.72;6085502;19;20378;-74
2023/11/26 04:06:22;;;;;;;7.07;2.83;;;;;;;3.54;100.00;101642.69;6085289;19;20010;-73
2023/11/26 04:08:27;;;;;;;8.90;3.10;;;;;;;3.52;100.00;101647.84;6083964;19;20002;-73
2023/11/26 04:10:33;;;;;;;14.05;3.72;;;;;;;3.51;100.00;101651.34;6081966;19;20010;-74
2023/11/26 04:12:44;;;;;;;7.63;3.60;;;;;;;3.50;100.00;101640.91;6085758;19;20014;-72
2023/11/26 04:14:54;;;;;;;13.23;3.90;;;;;;;3.51;100.00;101647.88;6087224;19;20015;-73
2023/11/26 04:16:59;;;;;;;10.10;3.70;;;;;;;3.50;100.00;101649.63;6088641;19;20823;-74
2023/11/26 04:19:04;;;;;;;8.20;3.78;;;;;;;3.54;100.00;101653.06;6087384;19;20014;-74
2023/11/26 04:21:12;;;;;;;6.55;2.60;;;;;;;3.59;100.00;101655.69;6083705;19;20010;-72
2023/11/26 04:23:14;;;;;;;4.03;2.92;;;;;;;3.56;100.00;101661.75;6083580;19;20015;-73
2023/11/26 04:25:19;;;;;;;12.43;3.05;;;;;;;3.62;100.00;101659.16;6088591;19;20512;-74
2023/11/26 04:27:22;;;;;;;5.65;2.33;;;;;;;3.72;100.00;101670.44;6085236;19;20028;-74
2023/11/26 04:29:27;;;;;;;3.58;2.22;;;;;;;3.74;100.00;101666.09;6086317;19;20014;-73
2023/11/26 04:31:33;;;;;;;5.03;2.35;;;;;;;3.83;100.00;101665.25;6086463;19;20062;-73
2023/11/26 04:33:37;;;;;;;7.43;2.80;;;;;;;3.87;100.00;101661.75;6084312;19;20110;-72
2023/11/26 04:35:41;;;;;;;6.53;1.83;;;;;;;3.91;100.00;101669.56;6081028;19;20030;-71
2023/11/26 04:37:49;;;;;;;7.20;2.45;;;;;;;4.00;100.00;101673.03;6085733;19;20003;-72
2023/11/26 04:39:56;;;;;;;6.68;2.33;;;;;;;3.97;100.00;101676.50;6086862;19;20014;-73
2023/11/26 04:42:02;;;;;;;4.60;2.03;;;;;;;3.94;100.00;101674.75;6082196;19;20006;-73
2023/11/26 04:44:12;;;;;;;4.65;2.97;;;;;;;4.00;100.00;101680.84;6086258;19;20014;-73
2023/11/26 04:46:18;;;;;;;2.80;1.98;;;;;;;4.05;100.00;101679.97;6086871;19;20011;-73
2023/11/26 04:48:23;;;;;;;5.38;2.72;;;;;;;4.03;100.00;101676.53;6084960;19;20033;-73
2023/11/26 04:50:28;;;;;;;18.60;1.98;;;;;;;4.05;100.00;101677.34;6085058;19;20491;-73
2023/11/26 04:52:31;;;;;;;5.80;2.25;;;;;;;4.03;100.00;101678.22;6083790;19;20015;-73
2023/11/26 04:54:39;;;;;;;2.55;1.73;;;;;;;3.99;100.00;101674.78;6081093;19;20010;-73
2023/11/26 04:56:44;;;;;;;4.90;2.80;;;;;;;3.96;100.00;101665.22;6084643;19;20030;-73
2023/11/26 04:58:50;;;;;;;2.67;2.00;;;;;;;3.95;100.00;101671.31;6086273;19;20464;-73
2023/11/26 05:00:55;;;;;;;6.82;2.28;;;;;;;3.97;100.00;101659.16;6082566;19;20013;-73
2023/11/26 05:03:02;;;;;;;5.53;1.90;;;;;;;3.99;100.00;101668.72;6086124;19;20010;-73
2023/11/26 05:05:08;;;;;;;7.15;2.15;;;;;;;3.98;100.00;101660.03;6086106;19;20012;-72
2023/11/26 05:07:13;;;;;;;3.72;2.33;;;;;;;3.95;100.00;101654.84;6084194;19;20570;-72
2023/11/26 05:09:16;;;;;;;4.82;1.75;;;;;;;3.93;100.00;101662.63;6076080;19;20030;-72
2023/11/26 05:11:26;;;;;;;2.20;1.63;;;;;;;3.95;100.00;101663.50;6082811;19;20350;-73
2023/11/26 05:13:31;;;;;;;4.57;2.00;;;;;;;3.90;100.00;101657.44;6082457;19;20114;-72
2023/11/26 05:15:40;;;;;;;1.83;1.23;;;;;;;3.91;100.00;101653.97;6082972;19;20062;-73
2023/11/26 05:17:45;;;;;;;4.13;1.70;;;;;;;3.88;100.00;101663.50;6083882;19;20014;-73
2023/11/26 05:19:49;;;;;;;2.03;1.20;;;;;;;3.84;100.00;101649.63;6084045;19;20372;-74
2023/11/26 05:21:55;;;;;;;3.28;2.05;;;;;;;3.85;100.00;101664.38;6084449;19;20478;-72
2023/11/26 05:24:00;;;;;;;7.95;2.30;;;;;;;3.87;100.00;101662.66;6084933;19;20015;-73
2023/11/26 05:26:02;;;;;;;5.15;2.15;;;;;;;3.85;100.00;101658.31;6084620;19;20010;-73
2023/11/26 05:28:10;;;;;;;5.45;1.65;;;;;;;3.86;100.00;101660.88;6081091;19;20007;-72
2023/11/26 05:30:12;;;;;;;10.02;3.13;;;;;;;3.89;100.00;101660.03;6083015;19;20007;-72
2023/11/26 05:32:17;;;;;;;4.32;2.83;;;;;;;3.89;100.00;101671.28;6083714;19;20582;-73
2023/11/26 05:34:22;;;;;;;2.08;1.40;;;;;;;3.97;100.00;101679.97;6080268;19;20438;-72
2023/11/26 05:36:27;;;;;;;7.63;2.15;;;;;;;3.96;100.00;101683.44;6081520;19;20474;-72
2023/11/26 05:38:32;;;;;;;4.60;2.08;;;;;;;4.04;100.00;101695.59;6085372;19;20827;-73
2023/11/26 05:40:37;;;;;;;4.50;1.75;;;;;;;4.21;100.00;101691.22;6084632;19;20491;-74
2023/11/26 05:42:43;;;;;;;4.20;1.80;;;;;;;4.19;100.00;101669.56;6084744;19;20015;-73
2023/11/26 05:44:51;;;;;;;8.27;1.58;;;;;;;4.18;100.00;101675.63;6082231;19;20085;-72
2023/11/26 05:46:56;;;;;;;12.88;2.05;;;;;;;4.16;100.00;101677.34;6082812;19;20010;-73
2023/11/26 05:48:58;;;;;;;4.80;1.77;;;;;;;4.17;100.00;101671.31;6080791;19;20006;-73
2023/11/26 05:51:03;;;;;;;3.45;1.40;;;;;;;4.13;100.00;101659.16;6083428;19;20010;-72
2023/11/26 05:53:12;;;;;;;3.72;1.60;;;;;;;4.13;100.00;101653.94;6074386;19;20326;-73
2023/11/26 05:55:21;;;;;;;2.80;1.40;;;;;;;4.07;100.00;101662.63;6080758;19;20006;-73
2023/11/26 05:57:26;;;;;;;2.17;1.27;;;;;;;4.04;100.00;101660.03;6082538;19;20037;-72
2023/11/26 05:59:31;;;;;;;5.57;2.38;;;;;;;4.02;100.00;101659.16;6077380;19;20396;-72
2023/11/26 06:01:36;;;;;;;5.13;2.33;;;;;;;3.96;100.00;101657.44;6077949;19;20015;-72
2023/11/26 06:03:41;;;;;;;2.30;1.63;;;;;;;3.94;100.00;101661.75;6085303;19;20937;-72
2023/11/26 06:05:46;;;;;;;9.82;2.95;;;;;;;3.93;100.00;101656.56;6086791;19;20023;-73
2023/11/26 06:07:48;;;;;;;4.95;1.98;;;;;;;3.87;100.00;101652.25;6083191;19;20011;-74
2023/11/26 06:09:53;;;;;;;6.00;2.25;;;;;;;3.83;100.00;101654.84;6079642;19;20018;-72
2023/11/26 06:12:01;;;;;;;4.75;1.75;;;;;;;3.85;100.00;101664.38;6081664;19;20038;-73
2023/11/26 06:14:09;;;;;;;6.28;2.03;;;;;;;3.80;100.00;101654.84;6075530;19;20014;-73
2023/11/26 06:16:16;;;;;;;4.43;1.90;;;;;;;3.83;100.00;101650.50;6082637;19;20907;-73
2023/11/26 06:18:23;;;;;;;3.08;2.03;;;;;;;3.80;100.00;101652.25;6082117;19;20017;-74
2023/11/26 06:20:28;;;;;;;6.70;2.65;;;;;;;3.77;100.00;101647.91;6081767;19;20475;-73
2023/11/26 06:22:30;;;;;;;3.60;2.35;;;;;;;3.74;100.00;101653.09;6078582;19;20013;-73
2023/11/26 06:24:36;;;;;;;3.38;1.95;;;;;;;3.70;100.00;101648.75;6081047;19;20098;-73
2023/11/26 06:26:41;;;;;;;10.25;1.85;;;;;;;3.76;100.00;101656.56;6080338;19;20445;-73
2023/11/26 06:28:45;;;;;;;9.18;2.00;;;;;;;3.72;100.00;101660.03;6078369;19;20368;-74
2023/11/26 06:30:50;;;;;;;8.25;2.90;;;;;;;3.70;100.00;101659.16;6078955;19;20391;-75
2023/11/26 06:32:55;;;;;;;12.40;2.25;;;;;;;3.70;100.00;101664.34;6079290;19;20081;-73
2023/11/26 06:35:03;;;;;;;10.95;2.92;;;;;;;3.65;100.00;101669.53;6080811;19;20054;-73
2023/11/26 06:37:12;;;;;;;7.55;2.60;;;;;;;3.74;100.00;101671.31;6080939;19;20114;-73
2023/11/26 06:39:14;;;;;;;7.25;3.53;;;;;;;3.72;100.00;101670.44;6080338;19;20010;-74
2023/11/26 06:41:24;;;;;;;;;;;;;;;3.81;100.00;101677.34;6081387;19;20655;-73
2023/11/26 06:43:29;;;;;;;5.72;2.45;;;;;;;3.82;100.00;101679.09;6074384;19;19915;-72
2023/11/26 06:45:36;;;;;;;3.55;2.28;;;;;;;3.85;100.00;101682.56;6079250;19;20017;-72
2023/11/26 06:47:43;;;;;;;5.50;2.00;;;;;;;3.83;100.00;101679.09;6083930;19;20349;-74
2023/11/26 06:49:45;;;;;;;5.68;1.92;;;;;;;3.82;100.00;101676.47;6081815;19;20024;-73
2023/11/26 06:51:55;;;;;;;5.75;2.92;;;;;;;3.88;100.00;101679.97;6086268;19;20007;-73
2023/11/26 06:54:00;;;;;;;7.50;1.92;;;;;;;3.93;100.00;101683.44;6082685;19;20085;-73
2023/11/26 06:56:05;;;;;;;5.85;1.90;;;;;;;3.94;100.00;101679.97;6083563;19;20013;-73
2023/11/26 06:58:10;;;;;;;5.22;2.38;;;;;;;4.00;100.00;101678.22;6084018;19;20002;-72
2023/11/26 07:00:17;;;;;;;5.53;1.75;;;;;;;4.04;100.00;101673.03;6082338;19;20003;-73
2023/11/26 07:02:21;;;;;;;10.88;3.72;;;;;;;4.03;100.00;101663.50;6084322;19;20010;-73
2023/11/26 07:04:26;;;;;;;6.45;2.30;;;;;;;4.02;100.00;101661.75;6080220;19;20113;-72
2023/11/26 07:06:31;;;;;;;3.78;2.75;;;;;;;4.05;100.00;101671.28;6081940;19;20002;-72
2023/11/26 07:08:41;;;;;;;9.02;2.85;;;;;;;4.05;100.00;101661.75;6085309;19;20029;-72
2023/11/26 07:10:48;;;;;;;11.13;2.53;;;;;;;4.02;100.00;101668.69;6080325;19;20645;-73
2023/11/26 07:12:55;;;;;;;11.00;4.18;;;;;;;4.00;100.00;101665.22;6081698;19;20023;-72
2023/11/26 07:15:01;;;;;;;10.95;3.17;;;;;;;3.99;100.00;101666.09;6084834;19;20458;-74
2023/11/26 07:17:07;;;;;;;6.03;3.40;;;;;;;4.00;100.00;101663.50;6086272;19;20736;-73
2023/11/26 07:19:10;;;;;;;6.55;2.42;;;;;;;4.00;100.00;101662.63;6084248;19;20335;-72
2023/11/26 07:21:15;;;;;;;;;;;;;;;4.00;100.00;101660.03;6085122;19;20479;-73
2023/11/26 07:23:21;;;;;;;8.63;3.38;;;;;;;4.01;100.00;101667.84;6083166;19;19910;-71
2023/11/26 07:25:28;;;;;;;5.95;3.10;;;;;;;3.99;100.00;101672.16;6086742;19;20010;-73
2023/11/26 07:27:35;;;;;;;8.95;2.78;;;;;;;3.97;100.00;101666.94;6083242;19;20010;-73
2023/11/26 07:29:40;;;;;;;6.53;2.13;;;;;;;3.97;100.00;101666.94;6082567;19;20007;-73
2023/11/26 07:31:50;;;;;;;9.68;3.42;;;;;;;4.01;100.00;101659.19;6085657;19;20369;-73
2023/11/26 07:33:53;;;;;;;5.60;2.50;;;;;;;4.00;100.00;101665.22;6085364;19;20423;-73
2023/11/26 07:35:58;;;;;;;10.55;2.83;;;;;;;3.97;100.00;101659.16;6078798;19;20027;-73
2023/11/26 07:38:04;;;;;;;8.23;2.40;;;;;;;3.99;100.00;101666.97;6083660;19;20399;-74
2023/11/26 07:40:14;;;;;;;5.53;2.65;;;;;;;3.98;100.00;101657.44;6082810;19;20006;-73
2023/11/26 07:42:21;;;;;;;3.72;2.50;;;;;;;3.98;100.00;101665.25;6083348;19;20059;-72
2023/11/26 07:44:26;;;;;;;8.52;3.15;;;;;;;4.00;100.00;101670.44;6085243;19;20014;-74
2023/11/26 07:46:31;;;;;;;5.97;3.08;;;;;;;3.98;100.00;101665.25;6084376;19;20523;-72
2023/11/26 07:48:42;;;;;;;7.07;3.42;;;;;;;3.99;100.00;101668.72;6083929;19;20187;-71
2023/11/26 07:50:47;;;;;;;7.72;3.00;;;;;;;3.97;100.00;101669.56;6084682;19;20019;-72
2023/11/26 07:52:53;;;;;;;6.55;3.08;;;;;;;3.97;100.00;101666.94;6078936;19;20010;-72
2023/11/26 07:54:58;;;;;;;12.82;3.35;;;;;;;4.01;100.00;101669.59;6083563;19;20018;-74
2023/11/26 07:57:04;;;;;;;11.40;3.13;;;;;;;4.04;100.00;101669.56;6084156;19;20006;-73
2023/11/26 07:59:14;;;;;;;7.20;3.30;;;;;;;4.06;100.00;101676.50;6088329;19;20014;-73
2023/11/26 08:01:20;;;;;;;9.52;2.72;;;;;;;4.05;100.00;101671.28;6085706;19;20542;-73
2023/11/26 08:03:26;;;;;;;8.82;3.58;;;;;;;4.09;100.00;101673.03;6085184;19;20463;-75
2023/11/26 08:05:32;;;;;;;5.53;2.50;;;;;;;4.14;100.00;101671.31;6083313;19;20015;-72
2023/11/26 08:07:37;;;;;;;7.55;2.80;;;;;;;4.16;100.00;101669.53;6082875;19;20629;-74
2023/11/26 08:09:42;;;;;;;12.43;3.60;;;;;;;4.23;100.00;101668.69;6077037;19;20597;-73
2023/11/26 08:11:46;;;;;;;4.85;2.75;;;;;;;4.23;100.00;101666.09;6076810;19;20033;-74
2023/11/26 08:13:51;;;;;;;9.63;2.97;;;;;;;4.28;100.00;101673.88;6080479;19;20506;-74
2023/11/26 08:15:56;;;;;;;5.60;3.60;;;;;;;4.32;100.00;101670.44;6076454;19;20030;-74
2023/11/26 08:18:04;;;;;;;8.50;2.67;;;;;;;4.35;100.00;101666.06;6074090;19;20137;-72
2023/11/26 08:20:12;;;;;;;7.95;3.35;;;;;;;4.42;100.00;101671.25;6080785;19;20010;-72
2023/11/26 08:22:18;;;;;;;11.18;3.03;;;;;;;4.48;100.00;101671.28;6079458;19;20050;-71
2023/11/26 08:24:24;;;;;;;7.88;2.63;;;;;;;4.51;100.00;101671.25;6077825;19;21189;-73
2023/11/26 08:26:33;;;;;;;3.30;2.35;;;;;;;4.59;100.00;101672.09;6077074;19;20021;-72
2023/11/26 08:28:36;;;;;;;9.77;2.95;;;;;;;4.65;100.00;101674.69;6073663;19;20441;-74
2023/11/26 08:30:44;;;;;;;6.03;2.55;;;;;;;4.71;100.00;101671.19;6076102;19;20559;-73
2023/11/26 08:32:50;;;;;;;8.15;2.75;;;;;;;4.72;100.00;101671.19;6081232;19;20031;-72
2023/11/26 08:34:57;;;;;;;9.27;2.75;;;;;;;4.75;100.00;101675.53;6079727;19;20049;-72
2023/11/26 08:37:05;;;;;;;8.07;2.83;;;;;;;4.79;100.00;101679.84;6079371;19;20541;-73
2023/11/26 08:39:25;;;;;;;6.55;2.28;;;;;;;4.80;100.00;101679.00;6080383;19;20007;-73
2023/11/26 08:41:36;;;;;;;8.50;2.60;;;;;;;4.86;100.00;101665.94;6087350;19;20002;-74
2023/11/26 08:43:44;;;;;;;8.32;2.83;;;;;;;4.92;100.00;101673.72;6085398;19;20006;-73
2023/11/26 08:45:51;;;;;;;2.47;2.17;;;;;;;4.95;100.00;101665.91;6084937;19;20022;-74
2023/11/26 08:47:59;;;;;;;5.82;2.92;;;;;;;5.00;100.00;101664.16;6083518;19;20475;-74
2023/11/26 08:50:04;;;;;;;13.55;3.20;;;;;;;5.05;100.00;101661.50;6084517;19;20010;-74
2023/11/26 08:52:10;;;;;;;15.38;3.03;;;;;;;5.14;100.00;101665.84;6079745;19;20037;-73
2023/11/26 08:54:17;;;;;;;7.57;2.83;;;;;;;5.21;100.00;101670.13;6081787;19;20002;-73
2023/11/26 08:56:22;;;;;;;13.30;3.53;;;;;;;5.27;100.00;101670.13;6082934;19;20075;-74
2023/11/26 08:58:27;;;;;;;6.85;2.67;;;;;;;5.32;100.00;101677.88;6084264;19;20034;-73
2023/11/26 09:00:30;;;;;;;4.20;2.42;;;;;;;5.39;100.00;101666.56;6078908;19;20759;-72
2023/11/26 09:02:35;;;;;;;3.33;1.83;;;;;;;5.44;100.00;101668.25;6083909;19;20096;-73
2023/11/26 09:04:43;;;;;;;4.40;2.15;;;;;;;5.49;100.00;101670.84;6079094;19;20022;-74
2023/11/26 09:06:48;;;;;;;8.95;2.45;;;;;;;5.54;100.00;101666.47;6085247;19;20393;-73
2023/11/26 09:08:50;;;;;;;12.07;3.50;;;;;;;5.56;100.00;101664.72;6082677;19;20026;-73
2023/11/26 09:10:58;;;;;;;9.38;3.03;;;;;;;5.63;100.00;101670.75;6083853;19;20052;-71
2023/11/26 09:13:01;;;;;;;4.00;1.83;;;;;;;5.65;100.00;101664.66;6078821;19;20047;-71
2023/11/26 09:15:10;;;;;;;6.03;2.17;;;;;;;5.69;100.00;101666.38;6081077;19;20531;-74
2023/11/26 09:17:13;;;;;;;6.93;2.83;;;;;;;5.73;100.00;101654.16;6083882;19;20515;-71
2023/11/26 09:19:18;;;;;;;10.73;3.13;;;;;;;5.76;100.00;101658.50;6087806;19;20010;-72
2023/11/26 09:21:25;;;;;;;4.38;2.45;;;;;;;5.80;100.00;101655.84;6084886;19;20809;-71
2023/11/26 09:23:32;;;;;;;8.98;2.63;;;;;;;5.85;100.00;101655.84;6085948;19;20504;-71
2023/11/26 09:25:37;;;;;;;5.43;2.58;;;;;;;5.86;100.00;101655.81;6085664;19;20024;-72
2023/11/26 09:27:43;;;;;;;4.28;2.08;;;;;;;5.90;100.00;101648.84;6085286;19;20006;-72
2023/11/26 09:29:48;;;;;;;4.50;2.25;;;;;;;5.93;100.00;101651.41;6082564;19;20082;-74
2023/11/26 09:31:53;;;;;;;10.77;2.60;;;;;;;5.93;100.00;101649.69;6085219;19;20470;-72
2023/11/26 09:33:56;;;;;;;6.50;2.45;;;;;;;5.98;100.00;101649.66;6084424;19;20014;-74
2023/11/26 09:36:01;;;;;;;4.18;2.22;;;;;;;6.02;100.00;101650.50;6085999;19;20011;-72
2023/11/26 09:38:09;;;;;;;7.45;2.42;;;;;;;6.08;100.00;101653.03;6085052;19;20010;-72
2023/11/26 09:40:17;;;;;;;13.43;2.53;;;;;;;6.09;100.00;101654.78;6086106;19;20033;-73
2023/11/26 09:42:26;;;;;;;5.40;2.10;;;;;;;6.13;100.00;101654.75;6082567;19;20011;-72
2023/11/26 09:44:32;;;;;;;5.72;1.92;;;;;;;6.22;100.00;101658.16;6085282;19;20491;-74
2023/11/26 09:46:39;;;;;;;9.85;2.70;;;;;;;6.19;100.00;101653.84;6087380;19;20003;-72